sensor_id;sensor_type;location;lat;lon;timestamp;temperature;humidity
71142;DHT22;58808;59.366;17.970;2023-04-28T00:00:44;3.30;99.90
71142;DHT22;58808;59.366;17.970;2023-04-28T00:03:12;3.30;99.90
71142;DHT22;58808;59.366;17.970;2023-04-28T00:05:38;3.30;99.90
71142;DHT22;58808;59.366;17.970;2023-04-28T00:08:04;3.30;99.90
71142;DHT22;58808;59.366;17.970;2023-04-28T00:10:30;3.30;99.90
71142;DHT22;58808;59.366;17.970;2023-04-28T00:12:56;3.30;99.90
71142;DHT22;58808;59.366;17.970;2023-04-28T00:15:21;3.30;99.90
71142;DHT22;58808;59.366;17.970;2023-04-28T00:17:47;3.30;99.90
71142;DHT22;58808;59.366;17.970;2023-04-28T00:20:13;3.30;99.90
71142;DHT22;58808;59.366;17.970;2023-04-28T00:22:39;3.30;99.90
71142;DHT22;58808;59.366;17.970;2023-04-28T00:25:06;3.30;99.90
71142;DHT22;58808;59.366;17.970;2023-04-28T00:27:33;3.20;99.90
71142;DHT22;58808;59.366;17.970;2023-04-28T00:29:59;3.30;99.90
71142;DHT22;58808;59.366;17.970;2023-04-28T00:32:25;3.20;99.90
71142;DHT22;58808;59.366;17.970;2023-04-28T00:34:50;3.20;99.90
71142;DHT22;58808;59.366;17.970;2023-04-28T00:37:18;3.20;99.90
71142;DHT22;58808;59.366;17.970;2023-04-28T00:39:44;3.10;99.90
71142;DHT22;58808;59.366;17.970;2023-04-28T00:42:13;3.10;99.90
71142;DHT22;58808;59.366;17.970;2023-04-28T00:44:39;3.00;99.90
71142;DHT22;58808;59.366;17.970;2023-04-28T00:47:07;3.00;99.90
71142;DHT22;58808;59.366;17.970;2023-04-28T00:49:34;3.00;99.90
71142;DHT22;58808;59.366;17.970;2023-04-28T00:52:06;3.00;99.90
71142;DHT22;58808;59.366;17.970;2023-04-28T00:54:32;2.90;99.90
71142;DHT22;58808;59.366;17.970;2023-04-28T00:57:02;2.90;99.90
71142;DHT22;58808;59.366;17.970;2023-04-28T00:59:28;2.90;99.90
71142;DHT22;58808;59.366;17.970;2023-04-28T01:01:54;2.90;99.90
71142;DHT22;58808;59.366;17.970;2023-04-28T01:04:22;2.90;99.90
71142;DHT22;58808;59.366;17.970;2023-04-28T01:06:50;2.80;99.90
71142;DHT22;58808;59.366;17.970;2023-04-28T01:09:16;2.80;99.90
71142;DHT22;58808;59.366;17.970;2023-04-28T01:11:42;2.80;99.90
71142;DHT22;58808;59.366;17.970;2023-04-28T01:14:08;2.80;99.90
71142;DHT22;58808;59.366;17.970;2023-04-28T01:16:34;2.80;99.90
71142;DHT22;58808;59.366;17.970;2023-04-28T01:19:02;2.80;99.90
71142;DHT22;58808;59.366;17.970;2023-04-28T01:21:30;2.80;99.90
71142;DHT22;58808;59.366;17.970;2023-04-28T01:24:00;2.80;99.90
71142;DHT22;58808;59.366;17.970;2023-04-28T01:26:26;2.70;99.90
71142;DHT22;58808;59.366;17.970;2023-04-28T01:28:52;2.70;99.90
71142;DHT22;58808;59.366;17.970;2023-04-28T01:31:18;2.70;99.90
71142;DHT22;58808;59.366;17.970;2023-04-28T01:33:44;2.70;99.90
71142;DHT22;58808;59.366;17.970;2023-04-28T01:36:10;2.70;99.90
71142;DHT22;58808;59.366;17.970;2023-04-28T01:38:36;2.70;99.90
71142;DHT22;58808;59.366;17.970;2023-04-28T01:41:01;2.70;99.90
71142;DHT22;58808;59.366;17.970;2023-04-28T01:43:28;2.60;99.90
71142;DHT22;58808;59.366;17.970;2023-04-28T01:45:53;2.70;99.90
71142;DHT22;58808;59.366;17.970;2023-04-28T01:48:19;2.60;99.90
71142;DHT22;58808;59.366;17.970;2023-04-28T01:50:45;2.60;99.90
71142;DHT22;58808;59.366;17.970;2023-04-28T01:53:11;2.60;99.90
71142;DHT22;58808;59.366;17.970;2023-04-28T01:55:37;2.60;99.90
71142;DHT22;58808;59.366;17.970;2023-04-28T01:58:03;2.60;99.90
71142;DHT22;58808;59.366;17.970;2023-04-28T02:00:29;2.60;99.90
71142;DHT22;58808;59.366;17.970;2023-04-28T02:02:54;2.60;99.90
71142;DHT22;58808;59.366;17.970;2023-04-28T02:05:20;2.50;99.90
71142;DHT22;58808;59.366;17.970;2023-04-28T02:07:46;2.50;99.90
71142;DHT22;58808;59.366;17.970;2023-04-28T02:10:12;2.60;99.90
71142;DHT22;58808;59.366;17.970;2023-04-28T02:12:38;2.50;99.90
71142;DHT22;58808;59.366;17.970;2023-04-28T02:15:04;2.50;99.90
71142;DHT22;58808;59.366;17.970;2023-04-28T02:17:30;2.50;99.90
71142;DHT22;58808;59.366;17.970;2023-04-28T02:19:56;2.50;99.90
71142;DHT22;58808;59.366;17.970;2023-04-28T02:22:22;2.50;99.90
71142;DHT22;58808;59.366;17.970;2023-04-28T02:24:48;2.60;99.90
71142;DHT22;58808;59.366;17.970;2023-04-28T02:27:14;2.60;99.90
71142;DHT22;58808;59.366;17.970;2023-04-28T02:29:40;2.50;99.90
71142;DHT22;58808;59.366;17.970;2023-04-28T02:32:06;2.50;99.90
71142;DHT22;58808;59.366;17.970;2023-04-28T02:34:32;2.50;99.90
71142;DHT22;58808;59.366;17.970;2023-04-28T02:36:58;2.50;99.90
71142;DHT22;58808;59.366;17.970;2023-04-28T02:39:24;2.50;99.90
71142;DHT22;58808;59.366;17.970;2023-04-28T02:41:51;2.50;99.90
71142;DHT22;58808;59.366;17.970;2023-04-28T02:44:17;2.40;99.90
71142;DHT22;58808;59.366;17.970;2023-04-28T02:46:43;2.50;99.90
71142;DHT22;58808;59.366;17.970;2023-04-28T02:49:08;2.50;99.90
71142;DHT22;58808;59.366;17.970;2023-04-28T02:51:34;2.40;99.90
71142;DHT22;58808;59.366;17.970;2023-04-28T02:54:00;2.50;99.90
71142;DHT22;58808;59.366;17.970;2023-04-28T02:56:26;2.50;99.90
71142;DHT22;58808;59.366;17.970;2023-04-28T02:58:52;2.50;99.90
71142;DHT22;58808;59.366;17.970;2023-04-28T03:01:17;2.50;99.90
71142;DHT22;58808;59.366;17.970;2023-04-28T03:03:43;2.50;99.90
71142;DHT22;58808;59.366;17.970;2023-04-28T03:06:09;2.50;99.90
71142;DHT22;58808;59.366;17.970;2023-04-28T03:08:35;2.50;99.90
71142;DHT22;58808;59.366;17.970;2023-04-28T03:11:00;2.50;99.90
71142;DHT22;58808;59.366;17.970;2023-04-28T03:13:26;2.50;99.90
71142;DHT22;58808;59.366;17.970;2023-04-28T03:15:54;2.60;99.90
71142;DHT22;58808;59.366;17.970;2023-04-28T03:18:20;2.60;99.90
71142;DHT22;58808;59.366;17.970;2023-04-28T03:20:47;2.60;99.90
71142;DHT22;58808;59.366;17.970;2023-04-28T03:23:13;2.60;99.90
71142;DHT22;58808;59.366;17.970;2023-04-28T03:25:38;2.60;99.90
71142;DHT22;58808;59.366;17.970;2023-04-28T03:28:04;2.70;99.90
71142;DHT22;58808;59.366;17.970;2023-04-28T03:30:30;2.60;99.90
71142;DHT22;58808;59.366;17.970;2023-04-28T03:32:56;2.70;99.90
71142;DHT22;58808;59.366;17.970;2023-04-28T03:35:22;2.70;99.90
71142;DHT22;58808;59.366;17.970;2023-04-28T03:37:47;2.70;99.90
71142;DHT22;58808;59.366;17.970;2023-04-28T03:40:14;2.70;99.90
71142;DHT22;58808;59.366;17.970;2023-04-28T03:42:40;2.70;99.90
71142;DHT22;58808;59.366;17.970;2023-04-28T03:45:06;2.80;99.90
71142;DHT22;58808;59.366;17.970;2023-04-28T03:47:32;2.80;99.90
71142;DHT22;58808;59.366;17.970;2023-04-28T03:49:58;2.80;99.90
71142;DHT22;58808;59.366;17.970;2023-04-28T03:52:24;2.80;99.90
71142;DHT22;58808;59.366;17.970;2023-04-28T03:54:50;2.90;99.90
71142;DHT22;58808;59.366;17.970;2023-04-28T03:57:16;2.90;99.90
71142;DHT22;58808;59.366;17.970;2023-04-28T03:59:42;2.90;99.90
71142;DHT22;58808;59.366;17.970;2023-04-28T04:02:08;2.90;99.90
71142;DHT22;58808;59.366;17.970;2023-04-28T04:04:33;2.90;99.90
71142;DHT22;58808;59.366;17.970;2023-04-28T04:06:59;3.00;99.90
71142;DHT22;58808;59.366;17.970;2023-04-28T04:09:25;3.00;99.90
71142;DHT22;58808;59.366;17.970;2023-04-28T04:11:51;3.10;99.90
71142;DHT22;58808;59.366;17.970;2023-04-28T04:14:17;3.10;99.90
71142;DHT22;58808;59.366;17.970;2023-04-28T04:16:43;3.10;99.90
71142;DHT22;58808;59.366;17.970;2023-04-28T04:19:08;3.10;99.90
71142;DHT22;58808;59.366;17.970;2023-04-28T04:21:34;3.20;99.90
71142;DHT22;58808;59.366;17.970;2023-04-28T04:24:00;3.20;99.90
71142;DHT22;58808;59.366;17.970;2023-04-28T04:26:26;3.20;99.90
71142;DHT22;58808;59.366;17.970;2023-04-28T04:28:51;3.20;99.90
71142;DHT22;58808;59.366;17.970;2023-04-28T04:31:17;3.20;99.90
71142;DHT22;58808;59.366;17.970;2023-04-28T04:33:47;3.20;99.90
71142;DHT22;58808;59.366;17.970;2023-04-28T04:36:13;3.30;99.90
71142;DHT22;58808;59.366;17.970;2023-04-28T04:38:39;3.30;99.90
71142;DHT22;58808;59.366;17.970;2023-04-28T04:41:05;3.30;99.90
71142;DHT22;58808;59.366;17.970;2023-04-28T04:43:31;3.30;99.90
71142;DHT22;58808;59.366;17.970;2023-04-28T04:45:57;3.40;99.90
71142;DHT22;58808;59.366;17.970;2023-04-28T04:48:22;3.40;99.90
71142;DHT22;58808;59.366;17.970;2023-04-28T04:50:48;3.40;99.90
71142;DHT22;58808;59.366;17.970;2023-04-28T04:53:14;3.40;99.90
71142;DHT22;58808;59.366;17.970;2023-04-28T04:55:40;3.40;99.90
71142;DHT22;58808;59.366;17.970;2023-04-28T04:58:06;3.50;99.90
71142;DHT22;58808;59.366;17.970;2023-04-28T05:00:32;3.50;99.90
71142;DHT22;58808;59.366;17.970;2023-04-28T05:02:58;3.50;99.90
71142;DHT22;58808;59.366;17.970;2023-04-28T05:05:24;3.50;99.90
71142;DHT22;58808;59.366;17.970;2023-04-28T05:07:50;3.50;99.90
71142;DHT22;58808;59.366;17.970;2023-04-28T05:10:16;3.50;99.90
71142;DHT22;58808;59.366;17.970;2023-04-28T05:12:42;3.50;99.90
71142;DHT22;58808;59.366;17.970;2023-04-28T05:15:09;3.50;99.90
71142;DHT22;58808;59.366;17.970;2023-04-28T05:17:35;3.40;99.90
71142;DHT22;58808;59.366;17.970;2023-04-28T05:20:01;3.40;99.90
71142;DHT22;58808;59.366;17.970;2023-04-28T05:22:27;3.40;99.90
71142;DHT22;58808;59.366;17.970;2023-04-28T05:24:52;3.40;99.90
71142;DHT22;58808;59.366;17.970;2023-04-28T05:27:18;3.40;99.90
71142;DHT22;58808;59.366;17.970;2023-04-28T05:29:44;3.50;99.90
71142;DHT22;58808;59.366;17.970;2023-04-28T05:32:10;3.50;99.90
71142;DHT22;58808;59.366;17.970;2023-04-28T05:34:35;3.50;99.90
71142;DHT22;58808;59.366;17.970;2023-04-28T05:37:01;3.50;99.90
71142;DHT22;58808;59.366;17.970;2023-04-28T05:39:27;3.50;99.90
71142;DHT22;58808;59.366;17.970;2023-04-28T05:41:53;3.50;99.90
71142;DHT22;58808;59.366;17.970;2023-04-28T05:44:18;3.50;99.90
71142;DHT22;58808;59.366;17.970;2023-04-28T05:46:44;3.50;99.90
71142;DHT22;58808;59.366;17.970;2023-04-28T05:49:10;3.50;99.90
71142;DHT22;58808;59.366;17.970;2023-04-28T05:51:36;3.50;99.90
71142;DHT22;58808;59.366;17.970;2023-04-28T05:54:03;3.60;99.90
71142;DHT22;58808;59.366;17.970;2023-04-28T05:56:28;3.60;99.90
71142;DHT22;58808;59.366;17.970;2023-04-28T05:58:54;3.60;99.90
71142;DHT22;58808;59.366;17.970;2023-04-28T06:01:21;3.60;99.90
71142;DHT22;58808;59.366;17.970;2023-04-28T06:03:47;3.60;99.90
71142;DHT22;58808;59.366;17.970;2023-04-28T06:06:13;3.60;99.90
71142;DHT22;58808;59.366;17.970;2023-04-28T06:08:39;3.70;99.90
71142;DHT22;58808;59.366;17.970;2023-04-28T06:11:05;3.70;99.90
71142;DHT22;58808;59.366;17.970;2023-04-28T06:13:31;3.80;99.90
71142;DHT22;58808;59.366;17.970;2023-04-28T06:15:57;3.80;99.90
71142;DHT22;58808;59.366;17.970;2023-04-28T06:18:23;3.70;99.90
71142;DHT22;58808;59.366;17.970;2023-04-28T06:20:49;3.80;99.90
71142;DHT22;58808;59.366;17.970;2023-04-28T06:23:15;3.80;99.90
71142;DHT22;58808;59.366;17.970;2023-04-28T06:25:40;3.90;99.90
71142;DHT22;58808;59.366;17.970;2023-04-28T06:28:06;3.90;99.90
71142;DHT22;58808;59.366;17.970;2023-04-28T06:30:32;3.90;99.90
71142;DHT22;58808;59.366;17.970;2023-04-28T06:32:59;3.90;99.90
71142;DHT22;58808;59.366;17.970;2023-04-28T06:35:25;4.00;99.90
71142;DHT22;58808;59.366;17.970;2023-04-28T06:37:51;4.00;99.90
71142;DHT22;58808;59.366;17.970;2023-04-28T06:40:17;4.00;99.90
71142;DHT22;58808;59.366;17.970;2023-04-28T06:42:42;3.90;99.90
71142;DHT22;58808;59.366;17.970;2023-04-28T06:45:08;3.90;99.90
71142;DHT22;58808;59.366;17.970;2023-04-28T06:47:34;4.00;99.90
71142;DHT22;58808;59.366;17.970;2023-04-28T06:50:02;4.00;99.90
71142;DHT22;58808;59.366;17.970;2023-04-28T06:52:27;3.90;99.90
71142;DHT22;58808;59.366;17.970;2023-04-28T06:54:55;3.80;99.90
71142;DHT22;58808;59.366;17.970;2023-04-28T06:57:21;3.70;99.90
71142;DHT22;58808;59.366;17.970;2023-04-28T06:59:46;3.80;99.90
71142;DHT22;58808;59.366;17.970;2023-04-28T07:02:12;3.90;99.90
71142;DHT22;58808;59.366;17.970;2023-04-28T07:04:38;4.00;99.90
71142;DHT22;58808;59.366;17.970;2023-04-28T07:07:04;4.00;99.90
71142;DHT22;58808;59.366;17.970;2023-04-28T07:09:33;4.10;99.90
71142;DHT22;58808;59.366;17.970;2023-04-28T07:11:59;4.10;99.90
71142;DHT22;58808;59.366;17.970;2023-04-28T07:14:25;4.20;99.90
71142;DHT22;58808;59.366;17.970;2023-04-28T07:16:51;4.30;99.90
71142;DHT22;58808;59.366;17.970;2023-04-28T07:19:16;4.30;99.90
71142;DHT22;58808;59.366;17.970;2023-04-28T07:21:42;4.30;99.90
71142;DHT22;58808;59.366;17.970;2023-04-28T07:24:08;4.40;99.90
71142;DHT22;58808;59.366;17.970;2023-04-28T07:26:34;4.50;99.90
71142;DHT22;58808;59.366;17.970;2023-04-28T07:29:01;4.60;99.90
71142;DHT22;58808;59.366;17.970;2023-04-28T07:31:27;4.60;99.90
71142;DHT22;58808;59.366;17.970;2023-04-28T07:33:53;4.70;99.90
71142;DHT22;58808;59.366;17.970;2023-04-28T07:36:19;4.50;99.90
71142;DHT22;58808;59.366;17.970;2023-04-28T07:38:45;4.50;99.90
71142;DHT22;58808;59.366;17.970;2023-04-28T07:41:11;4.50;99.90
71142;DHT22;58808;59.366;17.970;2023-04-28T07:43:38;4.50;99.90
71142;DHT22;58808;59.366;17.970;2023-04-28T07:46:05;4.50;99.90
71142;DHT22;58808;59.366;17.970;2023-04-28T07:48:31;4.50;99.90
71142;DHT22;58808;59.366;17.970;2023-04-28T07:50:57;4.50;99.90
71142;DHT22;58808;59.366;17.970;2023-04-28T07:53:22;4.40;99.90
71142;DHT22;58808;59.366;17.970;2023-04-28T07:55:48;4.40;99.90
71142;DHT22;58808;59.366;17.970;2023-04-28T07:58:14;4.40;99.90
71142;DHT22;58808;59.366;17.970;2023-04-28T08:00:39;4.50;99.90
71142;DHT22;58808;59.366;17.970;2023-04-28T08:03:05;4.60;99.90
71142;DHT22;58808;59.366;17.970;2023-04-28T08:05:31;4.80;99.90
71142;DHT22;58808;59.366;17.970;2023-04-28T08:07:57;5.00;99.90
71142;DHT22;58808;59.366;17.970;2023-04-28T08:10:23;5.10;99.90
71142;DHT22;58808;59.366;17.970;2023-04-28T08:12:51;5.20;99.90
71142;DHT22;58808;59.366;17.970;2023-04-28T08:15:17;5.00;99.90
71142;DHT22;58808;59.366;17.970;2023-04-28T08:17:43;4.80;99.90
71142;DHT22;58808;59.366;17.970;2023-04-28T08:20:09;4.90;99.90
71142;DHT22;58808;59.366;17.970;2023-04-28T08:22:35;4.80;99.90
71142;DHT22;58808;59.366;17.970;2023-04-28T08:25:01;4.70;99.90
71142;DHT22;58808;59.366;17.970;2023-04-28T08:27:26;4.80;99.90
71142;DHT22;58808;59.366;17.970;2023-04-28T08:29:53;4.90;99.90
71142;DHT22;58808;59.366;17.970;2023-04-28T08:32:18;5.00;99.90
71142;DHT22;58808;59.366;17.970;2023-04-28T08:34:44;5.00;99.90
71142;DHT22;58808;59.366;17.970;2023-04-28T08:37:10;4.90;99.90
71142;DHT22;58808;59.366;17.970;2023-04-28T08:39:35;5.00;99.90
71142;DHT22;58808;59.366;17.970;2023-04-28T08:42:04;5.10;99.90
71142;DHT22;58808;59.366;17.970;2023-04-28T08:44:36;5.20;99.90
71142;DHT22;58808;59.366;17.970;2023-04-28T08:47:12;5.30;99.90
71142;DHT22;58808;59.366;17.970;2023-04-28T08:49:39;5.30;99.90
71142;DHT22;58808;59.366;17.970;2023-04-28T08:52:11;5.40;99.90
71142;DHT22;58808;59.366;17.970;2023-04-28T08:54:38;5.40;99.90
71142;DHT22;58808;59.366;17.970;2023-04-28T08:57:08;5.40;99.90
71142;DHT22;58808;59.366;17.970;2023-04-28T08:59:36;5.40;99.90
71142;DHT22;58808;59.366;17.970;2023-04-28T09:02:03;5.50;99.90
71142;DHT22;58808;59.366;17.970;2023-04-28T09:04:28;5.60;99.90
71142;DHT22;58808;59.366;17.970;2023-04-28T09:06:54;5.80;99.90
71142;DHT22;58808;59.366;17.970;2023-04-28T09:09:21;6.20;99.90
71142;DHT22;58808;59.366;17.970;2023-04-28T09:12:01;6.60;99.90
71142;DHT22;58808;59.366;17.970;2023-04-28T09:14:29;7.00;99.90
71142;DHT22;58808;59.366;17.970;2023-04-28T09:16:55;7.20;99.90
71142;DHT22;58808;59.366;17.970;2023-04-28T09:19:21;7.20;99.90
71142;DHT22;58808;59.366;17.970;2023-04-28T09:21:55;7.40;99.90
71142;DHT22;58808;59.366;17.970;2023-04-28T09:24:39;7.50;99.90
71142;DHT22;58808;59.366;17.970;2023-04-28T09:27:08;7.80;99.90
71142;DHT22;58808;59.366;17.970;2023-04-28T09:29:51;7.90;99.90
71142;DHT22;58808;59.366;17.970;2023-04-28T09:32:21;7.70;99.90
71142;DHT22;58808;59.366;17.970;2023-04-28T09:34:52;7.90;99.90
71142;DHT22;58808;59.366;17.970;2023-04-28T09:37:27;7.90;99.90
71142;DHT22;58808;59.366;17.970;2023-04-28T09:39:55;7.80;99.90
71142;DHT22;58808;59.366;17.970;2023-04-28T09:45:05;7.30;99.90
71142;DHT22;58808;59.366;17.970;2023-04-28T09:47:32;7.10;99.90
71142;DHT22;58808;59.366;17.970;2023-04-28T09:50:02;7.00;99.90
71142;DHT22;58808;59.366;17.970;2023-04-28T09:52:28;7.00;99.90
71142;DHT22;58808;59.366;17.970;2023-04-28T09:54:55;6.90;99.90
71142;DHT22;58808;59.366;17.970;2023-04-28T09:57:22;6.90;99.90
71142;DHT22;58808;59.366;17.970;2023-04-28T09:59:52;6.90;99.90
71142;DHT22;58808;59.366;17.970;2023-04-28T10:02:19;7.00;99.90
71142;DHT22;58808;59.366;17.970;2023-04-28T10:04:48;7.00;99.90
71142;DHT22;58808;59.366;17.970;2023-04-28T10:07:15;7.10;99.90
71142;DHT22;58808;59.366;17.970;2023-04-28T10:09:48;7.20;99.90
71142;DHT22;58808;59.366;17.970;2023-04-28T10:12:17;7.30;99.90
71142;DHT22;58808;59.366;17.970;2023-04-28T10:14:44;7.40;99.90
71142;DHT22;58808;59.366;17.970;2023-04-28T10:17:12;7.50;99.90
71142;DHT22;58808;59.366;17.970;2023-04-28T10:19:49;7.40;99.90
71142;DHT22;58808;59.366;17.970;2023-04-28T10:27:42;7.60;99.90
71142;DHT22;58808;59.366;17.970;2023-04-28T10:30:13;7.60;99.90
71142;DHT22;58808;59.366;17.970;2023-04-28T10:32:39;8.00;99.90
71142;DHT22;58808;59.366;17.970;2023-04-28T10:40:43;9.20;96.30
71142;DHT22;58808;59.366;17.970;2023-04-28T10:43:34;9.60;94.60
71142;DHT22;58808;59.366;17.970;2023-04-28T10:46:06;9.60;92.00
71142;DHT22;58808;59.366;17.970;2023-04-28T10:56:29;9.50;88.40
71142;DHT22;58808;59.366;17.970;2023-04-28T10:58:56;9.90;89.10
71142;DHT22;58808;59.366;17.970;2023-04-28T11:01:31;9.90;80.40
71142;DHT22;58808;59.366;17.970;2023-04-28T11:04:06;10.30;85.90
71142;DHT22;58808;59.366;17.970;2023-04-28T11:06:38;10.40;76.30
71142;DHT22;58808;59.366;17.970;2023-04-28T11:16:59;10.50;71.90
71142;DHT22;58808;59.366;17.970;2023-04-28T11:19:31;10.50;71.40
71142;DHT22;58808;59.366;17.970;2023-04-28T11:21:59;10.40;68.80
71142;DHT22;58808;59.366;17.970;2023-04-28T11:24:27;10.50;69.00
71142;DHT22;58808;59.366;17.970;2023-04-28T11:26:54;10.50;69.80
71142;DHT22;58808;59.366;17.970;2023-04-28T11:29:34;10.70;72.10
71142;DHT22;58808;59.366;17.970;2023-04-28T11:32:01;11.10;73.30
71142;DHT22;58808;59.366;17.970;2023-04-28T11:34:27;11.20;67.70
71142;DHT22;58808;59.366;17.970;2023-04-28T11:36:52;11.20;63.10
71142;DHT22;58808;59.366;17.970;2023-04-28T11:39:28;10.90;62.60
71142;DHT22;58808;59.366;17.970;2023-04-28T11:41:55;10.60;64.10
71142;DHT22;58808;59.366;17.970;2023-04-28T11:44:23;10.60;65.60
71142;DHT22;58808;59.366;17.970;2023-04-28T11:46:51;10.80;67.90
71142;DHT22;58808;59.366;17.970;2023-04-28T11:49:24;11.00;67.70
71142;DHT22;58808;59.366;17.970;2023-04-28T11:51:51;11.10;64.50
71142;DHT22;58808;59.366;17.970;2023-04-28T11:54:25;10.80;62.50
71142;DHT22;58808;59.366;17.970;2023-04-28T11:56:52;10.50;63.70
71142;DHT22;58808;59.366;17.970;2023-04-28T11:59:23;10.40;65.50
71142;DHT22;58808;59.366;17.970;2023-04-28T12:01:51;10.20;64.90
71142;DHT22;58808;59.366;17.970;2023-04-28T12:04:35;10.10;65.10
71142;DHT22;58808;59.366;17.970;2023-04-28T12:07:09;9.80;64.70
71142;DHT22;58808;59.366;17.970;2023-04-28T12:09:37;9.50;65.70
71142;DHT22;58808;59.366;17.970;2023-04-28T12:12:05;9.40;66.50
71142;DHT22;58808;59.366;17.970;2023-04-28T12:14:32;9.30;66.60
71142;DHT22;58808;59.366;17.970;2023-04-28T12:17:24;9.50;67.00
71142;DHT22;58808;59.366;17.970;2023-04-28T12:19:51;9.80;65.90
71142;DHT22;58808;59.366;17.970;2023-04-28T12:22:17;10.00;64.50
71142;DHT22;58808;59.366;17.970;2023-04-28T12:24:43;9.90;63.20
71142;DHT22;58808;59.366;17.970;2023-04-28T12:27:14;9.90;64.10
71142;DHT22;58808;59.366;17.970;2023-04-28T12:29:41;10.10;65.40
71142;DHT22;58808;59.366;17.970;2023-04-28T12:32:09;10.50;62.50
71142;DHT22;58808;59.366;17.970;2023-04-28T12:34:36;10.70;63.70
71142;DHT22;58808;59.366;17.970;2023-04-28T12:37:03;11.10;61.40
71142;DHT22;58808;59.366;17.970;2023-04-28T12:39:35;11.40;60.80
71142;DHT22;58808;59.366;17.970;2023-04-28T12:42:02;11.60;57.40
71142;DHT22;58808;59.366;17.970;2023-04-28T12:44:32;11.60;57.80
71142;DHT22;58808;59.366;17.970;2023-04-28T12:47:04;11.90;58.10
71142;DHT22;58808;59.366;17.970;2023-04-28T12:49:30;12.20;57.50
71142;DHT22;58808;59.366;17.970;2023-04-28T12:51:56;12.60;56.00
71142;DHT22;58808;59.366;17.970;2023-04-28T12:54:22;12.60;54.90
71142;DHT22;58808;59.366;17.970;2023-04-28T12:56:48;12.60;53.60
71142;DHT22;58808;59.366;17.970;2023-04-28T12:59:14;12.20;53.60
71142;DHT22;58808;59.366;17.970;2023-04-28T13:01:39;12.30;53.90
71142;DHT22;58808;59.366;17.970;2023-04-28T13:04:05;12.20;53.00
71142;DHT22;58808;59.366;17.970;2023-04-28T13:06:31;12.10;52.90
71142;DHT22;58808;59.366;17.970;2023-04-28T13:08:57;11.90;52.90
71142;DHT22;58808;59.366;17.970;2023-04-28T13:11:23;12.10;54.70
71142;DHT22;58808;59.366;17.970;2023-04-28T13:13:51;12.50;54.70
71142;DHT22;58808;59.366;17.970;2023-04-28T13:16:18;12.90;49.60
71142;DHT22;58808;59.366;17.970;2023-04-28T13:18:43;12.70;48.80
71142;DHT22;58808;59.366;17.970;2023-04-28T13:21:09;12.70;51.80
71142;DHT22;58808;59.366;17.970;2023-04-28T13:23:36;12.90;52.00
71142;DHT22;58808;59.366;17.970;2023-04-28T13:26:01;13.00;48.50
71142;DHT22;58808;59.366;17.970;2023-04-28T13:28:28;13.00;48.90
71142;DHT22;58808;59.366;17.970;2023-04-28T13:30:54;12.80;50.40
71142;DHT22;58808;59.366;17.970;2023-04-28T13:33:20;12.80;51.00
71142;DHT22;58808;59.366;17.970;2023-04-28T13:35:46;12.60;49.50
71142;DHT22;58808;59.366;17.970;2023-04-28T13:38:12;12.50;49.60
71142;DHT22;58808;59.366;17.970;2023-04-28T13:40:37;12.30;48.40
71142;DHT22;58808;59.366;17.970;2023-04-28T13:43:03;12.00;49.20
71142;DHT22;58808;59.366;17.970;2023-04-28T13:45:30;12.00;50.70
71142;DHT22;58808;59.366;17.970;2023-04-28T13:47:55;12.00;49.70
71142;DHT22;58808;59.366;17.970;2023-04-28T13:50:21;11.80;49.70
71142;DHT22;58808;59.366;17.970;2023-04-28T13:52:47;11.70;50.10
71142;DHT22;58808;59.366;17.970;2023-04-28T13:55:13;11.80;51.30
71142;DHT22;58808;59.366;17.970;2023-04-28T13:57:38;11.50;50.60
71142;DHT22;58808;59.366;17.970;2023-04-28T14:00:05;11.50;51.50
71142;DHT22;58808;59.366;17.970;2023-04-28T14:02:31;11.40;50.60
71142;DHT22;58808;59.366;17.970;2023-04-28T14:04:57;11.40;52.50
71142;DHT22;58808;59.366;17.970;2023-04-28T14:07:22;11.40;55.00
71142;DHT22;58808;59.366;17.970;2023-04-28T14:09:48;11.30;58.00
71142;DHT22;58808;59.366;17.970;2023-04-28T14:12:14;11.10;59.10
71142;DHT22;58808;59.366;17.970;2023-04-28T14:14:40;10.80;61.80
71142;DHT22;58808;59.366;17.970;2023-04-28T14:17:07;10.30;68.60
71142;DHT22;58808;59.366;17.970;2023-04-28T14:19:33;9.90;73.30
71142;DHT22;58808;59.366;17.970;2023-04-28T14:21:59;9.90;75.70
71142;DHT22;58808;59.366;17.970;2023-04-28T14:24:25;9.80;80.70
71142;DHT22;58808;59.366;17.970;2023-04-28T14:26:51;9.60;86.70
71142;DHT22;58808;59.366;17.970;2023-04-28T14:29:17;9.80;93.10
71142;DHT22;58808;59.366;17.970;2023-04-28T14:31:43;10.20;94.70
71142;DHT22;58808;59.366;17.970;2023-04-28T14:34:09;10.60;96.50
71142;DHT22;58808;59.366;17.970;2023-04-28T14:36:35;10.90;92.90
71142;DHT22;58808;59.366;17.970;2023-04-28T14:39:02;10.80;93.40
71142;DHT22;58808;59.366;17.970;2023-04-28T14:41:28;10.80;94.30
71142;DHT22;58808;59.366;17.970;2023-04-28T14:43:54;10.80;93.70
71142;DHT22;58808;59.366;17.970;2023-04-28T14:46:21;10.70;93.10
71142;DHT22;58808;59.366;17.970;2023-04-28T14:48:50;10.60;92.80
71142;DHT22;58808;59.366;17.970;2023-04-28T14:51:17;10.60;91.60
71142;DHT22;58808;59.366;17.970;2023-04-28T14:53:43;10.50;91.50
71142;DHT22;58808;59.366;17.970;2023-04-28T14:56:09;10.60;91.50
71142;DHT22;58808;59.366;17.970;2023-04-28T14:58:35;10.90;91.90
71142;DHT22;58808;59.366;17.970;2023-04-28T15:01:01;11.20;91.30
71142;DHT22;58808;59.366;17.970;2023-04-28T15:03:28;11.40;89.10
71142;DHT22;58808;59.366;17.970;2023-04-28T15:05:54;11.40;86.70
71142;DHT22;58808;59.366;17.970;2023-04-28T15:08:20;11.40;85.70
71142;DHT22;58808;59.366;17.970;2023-04-28T15:10:46;11.30;84.50
71142;DHT22;58808;59.366;17.970;2023-04-28T15:13:11;11.20;84.40
71142;DHT22;58808;59.366;17.970;2023-04-28T15:15:37;11.20;85.00
71142;DHT22;58808;59.366;17.970;2023-04-28T15:18:03;11.20;83.10
71142;DHT22;58808;59.366;17.970;2023-04-28T15:20:30;11.20;83.60
71142;DHT22;58808;59.366;17.970;2023-04-28T15:22:58;11.20;81.60
71142;DHT22;58808;59.366;17.970;2023-04-28T15:25:24;11.30;82.30
71142;DHT22;58808;59.366;17.970;2023-04-28T15:27:50;11.50;81.20
71142;DHT22;58808;59.366;17.970;2023-04-28T15:30:17;11.60;79.70
71142;DHT22;58808;59.366;17.970;2023-04-28T15:32:43;11.70;74.10
71142;DHT22;58808;59.366;17.970;2023-04-28T15:35:09;11.40;74.00
71142;DHT22;58808;59.366;17.970;2023-04-28T15:37:40;11.30;73.30
71142;DHT22;58808;59.366;17.970;2023-04-28T15:40:11;10.90;74.50
71142;DHT22;58808;59.366;17.970;2023-04-28T15:42:37;10.80;71.90
71142;DHT22;58808;59.366;17.970;2023-04-28T15:45:06;10.70;72.80
71142;DHT22;58808;59.366;17.970;2023-04-28T15:47:35;10.70;71.70
71142;DHT22;58808;59.366;17.970;2023-04-28T15:50:00;10.50;71.00
71142;DHT22;58808;59.366;17.970;2023-04-28T15:52:26;10.50;70.90
71142;DHT22;58808;59.366;17.970;2023-04-28T15:54:54;10.40;71.30